Time;durP1;ratioP1;P1;durP2;ratioP2;P2;SDS_P1;SDS_P2;PMS_P1;PMS_P2;Temp;Humidity;BMP_temperature;BMP_pressure;BME280_temperature;BME280_humidity;BME280_pressure;Samples;Min_cycle;Max_cycle;Signal;HPM_P1;HPM_P2
2020/12/28 00:01:53;;;;;;;11.00;7.47;;;-0.80;99.90;;;;;;4788384;29;20066;-80
2020/12/28 00:19:05;;;;;;;11.43;7.15;;;-0.80;99.90;;;;;;5413104;24;20105;-80
2020/12/28 00:21:31;;;;;;;10.80;7.35;;;-0.80;99.90;;;;;;4787676;29;20576;-80
2020/12/28 00:24:04;;;;;;;10.20;6.80;;;-0.80;99.90;;;;;;5079970;24;20496;-80
2020/12/28 01:09:18;;;;;;;8.32;5.45;;;-0.90;99.90;;;;;;5295901;24;20415;-80
2020/12/28 01:11:50;;;;;;;12.52;6.00;;;-0.90;99.90;;;;;;4786962;29;20060;-80
2020/12/28 01:17:13;;;;;;;10.60;6.13;;;-0.80;99.90;;;;;;4813420;24;20061;-79
2020/12/28 01:19:55;;;;;;;8.85;5.85;;;-0.80;99.90;;;;;;4774163;30;20130;-81
2020/12/28 01:22:27;;;;;;;10.18;6.32;;;-0.80;99.90;;;;;;4786938;29;20051;-81
2020/12/28 01:24:54;;;;;;;10.95;5.20;;;-0.80;99.90;;;;;;4786965;29;20408;-81
2020/12/28 01:27:25;;;;;;;8.90;5.60;;;-0.70;99.90;;;;;;4772670;29;20051;-81
2020/12/28 01:29:51;;;;;;;7.30;5.25;;;-0.70;99.90;;;;;;4786881;29;20608;-81
2020/12/28 01:47:02;;;;;;;10.70;6.25;;;-0.70;99.90;;;;;;4784990;29;20174;-80
2020/12/28 01:49:34;;;;;;;8.88;5.90;;;-0.70;99.90;;;;;;4772676;30;20054;-80
2020/12/28 01:52:07;;;;;;;10.30;6.15;;;-0.70;99.90;;;;;;4772707;29;20134;-80
2020/12/28 01:54:39;;;;;;;10.07;5.95;;;-0.70;99.90;;;;;;4768935;30;20048;-80
2020/12/28 01:57:16;;;;;;;9.27;5.50;;;-0.70;99.90;;;;;;4767742;30;20044;-80
2020/12/28 01:59:55;;;;;;;10.27;5.97;;;-0.70;99.90;;;;;;4769004;30;20535;-79
2020/12/28 02:11:31;;;;;;;10.18;6.35;;;-0.70;99.90;;;;;;4752243;30;20165;-80
2020/12/28 02:29:32;;;;;;;11.40;6.70;;;-0.70;99.90;;;;;;5839807;24;20049;31
2020/12/28 02:32:00;;;;;;;9.32;6.18;;;-0.70;99.90;;;;;;4743497;30;20096;-80
2020/12/28 02:49:42;;;;;;;8.85;5.50;;;-0.70;99.90;;;;;;5535413;24;20048;-79
2020/12/28 02:52:32;;;;;;;10.70;5.93;;;-0.70;99.90;;;;;;4852841;24;20062;-79
2020/12/28 02:55:29;;;;;;;7.97;5.97;;;-0.80;99.90;;;;;;4788241;30;20051;-79
2020/12/28 02:58:20;;;;;;;9.75;5.97;;;-0.80;99.90;;;;;;4788925;30;20070;-79
2020/12/28 03:01:11;;;;;;;8.13;5.80;;;-0.70;99.90;;;;;;4788783;30;20050;-79
2020/12/28 03:04:00;;;;;;;9.88;6.10;;;-0.70;99.90;;;;;;4788977;30;20169;-80
2020/12/28 03:06:51;;;;;;;8.18;5.53;;;-0.70;99.90;;;;;;4788965;30;20050;-79
2020/12/28 03:09:40;;;;;;;10.00;6.15;;;-0.70;99.90;;;;;;4789744;30;20062;-80
2020/12/28 03:12:26;;;;;;;11.55;6.60;;;-0.70;99.90;;;;;;4788584;30;20066;-79
2020/12/28 03:15:16;;;;;;;10.05;6.03;;;-0.60;99.90;;;;;;4788270;30;20522;-80
2020/12/28 03:18:02;;;;;;;9.77;5.90;;;-0.60;99.90;;;;;;4788785;30;20062;-79
2020/12/28 03:20:47;;;;;;;11.38;6.65;;;-0.60;99.90;;;;;;4788563;30;20197;-79
2020/12/28 03:23:33;;;;;;;10.05;6.50;;;-0.60;99.90;;;;;;4788625;30;20419;-79
2020/12/28 03:26:18;;;;;;;10.23;6.75;;;-0.70;99.90;;;;;;4788431;30;20159;-79
2020/12/28 03:29:03;;;;;;;10.25;6.32;;;-0.70;99.90;;;;;;4788678;30;20058;-79
2020/12/28 03:31:54;;;;;;;11.98;6.80;;;-0.70;99.90;;;;;;4788543;30;20424;-79
2020/12/28 03:34:39;;;;;;;10.23;6.07;;;-0.60;99.90;;;;;;4789094;30;20069;-79
2020/12/28 03:37:29;;;;;;;9.18;5.97;;;-0.60;99.90;;;;;;4788385;30;20051;-79
2020/12/28 03:40:14;;;;;;;11.30;6.07;;;-0.60;99.90;;;;;;4788205;30;20051;-79
2020/12/28 03:43:00;;;;;;;8.65;5.93;;;-0.60;99.90;;;;;;4787942;30;20058;-80
2020/12/28 03:45:45;;;;;;;11.88;7.65;;;-0.70;99.90;;;;;;4787925;30;20066;-79
2020/12/28 03:48:35;;;;;;;10.05;6.38;;;-0.60;99.90;;;;;;4788142;30;20059;-79
2020/12/28 03:51:20;;;;;;;9.00;6.30;;;-0.60;99.90;;;;;;4788103;30;20058;-79
2020/12/28 03:54:06;;;;;;;8.85;5.78;;;-0.60;99.90;;;;;;4788010;30;20538;-79
2020/12/28 03:56:58;;;;;;;10.75;5.63;;;-0.60;99.90;;;;;;4778143;30;20070;-79
2020/12/28 03:59:43;;;;;;;9.52;5.88;;;-0.60;99.90;;;;;;4788070;30;20066;-79
2020/12/28 04:02:33;;;;;;;9.32;6.22;;;-0.60;99.90;;;;;;4787969;30;20058;-79
2020/12/28 04:05:36;;;;;;;7.25;5.45;;;-0.70;99.90;;;;;;4797239;29;20101;-79
2020/12/28 04:08:21;;;;;;;9.65;6.15;;;-0.70;99.90;;;;;;4787757;29;20084;-80
2020/12/28 04:11:12;;;;;;;12.20;6.72;;;-0.80;99.90;;;;;;4787884;30;20062;-80
2020/12/28 04:14:00;;;;;;;14.60;7.65;;;-0.80;99.90;;;;;;4775135;30;20134;-79
2020/12/28 04:16:32;;;;;;;10.48;6.75;;;-0.90;99.90;;;;;;4772938;30;20139;-79
2020/12/28 04:18:59;;;;;;;9.40;6.18;;;-0.80;99.90;;;;;;4772320;30;20081;-79
2020/12/28 04:21:30;;;;;;;9.95;6.53;;;-0.80;99.90;;;;;;4787171;30;20060;-80
2020/12/28 04:23:57;;;;;;;10.32;6.38;;;-0.80;99.90;;;;;;4772384;30;20073;-79
2020/12/28 04:26:29;;;;;;;8.77;5.82;;;-0.80;99.90;;;;;;4787244;30;20051;-80
2020/12/28 04:28:56;;;;;;;7.28;5.60;;;-0.70;99.90;;;;;;4787102;30;20051;-79
2020/12/28 04:31:30;;;;;;;11.88;6.60;;;-0.70;99.90;;;;;;4772805;30;20051;-79
2020/12/28 04:34:01;;;;;;;11.60;6.88;;;-0.70;99.90;;;;;;4829999;24;20055;-79
2020/12/28 04:36:33;;;;;;;8.90;6.05;;;-0.70;99.90;;;;;;4783692;30;20044;-80
2020/12/28 04:38:59;;;;;;;11.85;6.13;;;-0.70;99.90;;;;;;4769212;30;20385;-79
2020/12/28 04:41:31;;;;;;;9.50;6.22;;;-0.70;99.90;;;;;;4754780;30;20058;-79
2020/12/28 04:43:59;;;;;;;9.27;6.97;;;-0.80;99.90;;;;;;4811601;24;20482;-79
2020/12/28 04:46:31;;;;;;;9.57;6.07;;;-0.80;99.90;;;;;;4784852;29;20052;-79
2020/12/28 04:49:03;;;;;;;11.13;6.93;;;-0.90;99.90;;;;;;4768793;30;20056;-79
2020/12/28 04:51:35;;;;;;;12.30;6.97;;;-0.90;99.90;;;;;;4769053;30;20051;-79
2020/12/28 04:54:06;;;;;;;8.95;6.45;;;-1.00;99.90;;;;;;4960072;24;20065;-79
2020/12/28 04:56:36;;;;;;;10.77;6.88;;;-1.00;99.90;;;;;;4771730;30;20142;-79
2020/12/28 04:59:03;;;;;;;11.75;6.88;;;-1.00;99.90;;;;;;4771966;30;20531;-79
2020/12/28 05:01:34;;;;;;;8.68;6.55;;;-1.10;99.90;;;;;;4787156;29;20055;-79
2020/12/28 05:04:06;;;;;;;11.77;7.55;;;-1.10;99.90;;;;;;4786694;30;20051;-79
2020/12/28 05:06:32;;;;;;;11.48;7.35;;;-1.00;99.90;;;;;;4771832;29;20063;-79
2020/12/28 05:09:10;;;;;;;9.77;6.15;;;-1.00;99.90;;;;;;4772241;29;20055;-79
2020/12/28 05:11:42;;;;;;;9.68;6.95;;;-1.00;99.90;;;;;;4786721;30;20052;-80
2020/12/28 05:14:16;;;;;;;17.13;8.68;;;-0.90;99.90;;;;;;4787669;29;20047;-80
2020/12/28 05:16:43;;;;;;;18.88;8.95;;;-0.90;99.90;;;;;;4786418;29;20496;-79
2020/12/28 05:19:15;;;;;;;10.88;7.15;;;-0.80;99.90;;;;;;4772333;29;20047;-79
2020/12/28 05:21:46;;;;;;;10.18;5.82;;;-0.80;99.90;;;;;;4790179;29;20146;-79
2020/12/28 05:24:18;;;;;;;10.15;5.80;;;-0.80;99.90;;;;;;4847080;24;20507;-79
2020/12/28 05:26:45;;;;;;;18.25;8.50;;;-0.70;99.90;;;;;;4775061;30;20047;-79
2020/12/28 05:29:20;;;;;;;18.67;8.55;;;-0.70;99.90;;;;;;4775849;30;20048;-79
2020/12/28 05:31:53;;;;;;;20.77;10.18;;;-0.60;99.90;;;;;;4790150;29;20048;-79
2020/12/28 05:34:27;;;;;;;9.60;6.70;;;-0.70;99.90;;;;;;4789912;30;20122;-81
2020/12/28 05:36:58;;;;;;;10.75;6.45;;;-0.60;99.90;;;;;;4775104;30;20079;-79
2020/12/28 05:39:30;;;;;;;8.15;5.68;;;-0.60;99.90;;;;;;4776213;30;20051;-80
2020/12/28 05:42:09;;;;;;;9.45;6.03;;;-0.60;99.90;;;;;;4776164;30;20051;-82
2020/12/28 05:47:42;;;;;;;10.25;5.70;;;-0.50;99.90;;;;;;4962207;24;20059;-80
2020/12/28 05:50:19;;;;;;;9.32;5.70;;;-0.40;99.90;;;;;;4790058;30;20047;-79
2020/12/28 05:52:55;;;;;;;7.78;4.50;;;-0.40;99.90;;;;;;4789842;29;20075;-79
2020/12/28 05:55:24;;;;;;;11.68;5.68;;;-0.40;99.90;;;;;;4774615;29;20050;-79
2020/12/28 05:58:00;;;;;;;8.43;5.05;;;-0.40;99.90;;;;;;4789637;29;20078;-79
2020/12/28 06:00:36;;;;;;;7.82;5.32;;;-0.40;99.90;;;;;;4789589;29;20051;-80
2020/12/28 06:03:09;;;;;;;7.53;4.97;;;-0.30;99.90;;;;;;4928841;24;20062;-79
2020/12/28 06:05:51;;;;;;;6.50;4.13;;;-0.30;99.90;;;;;;4786375;30;20070;-80
2020/12/28 06:08:23;;;;;;;6.32;4.60;;;-0.20;99.90;;;;;;4786339;30;20143;-79
2020/12/28 06:10:54;;;;;;;8.55;5.45;;;-0.20;99.90;;;;;;4771465;29;20058;-80
2020/12/28 06:13:26;;;;;;;6.55;4.43;;;-0.20;99.90;;;;;;4771647;30;20120;-79
2020/12/28 06:16:02;;;;;;;7.10;4.25;;;-0.20;99.90;;;;;;4771346;30;20134;-80
2020/12/28 06:18:34;;;;;;;15.57;8.23;;;-0.20;99.90;;;;;;4771487;30;20073;-80
2020/12/28 06:21:12;;;;;;;8.82;5.75;;;-0.20;99.90;;;;;;4786096;30;20059;-79
2020/12/28 06:23:51;;;;;;;8.75;5.55;;;-0.20;99.90;;;;;;4888425;24;20062;-79
2020/12/28 06:26:22;;;;;;;14.50;8.20;;;-0.20;99.90;;;;;;4788962;30;20055;-79
2020/12/28 06:28:49;;;;;;;17.90;10.48;;;-0.20;99.90;;;;;;4789460;29;20425;-80
2020/12/28 06:31:25;;;;;;;25.40;12.32;;;-0.10;99.90;;;;;;4773986;30;20051;-79
2020/12/28 06:33:57;;;;;;;17.13;9.38;;;-0.20;99.90;;;;;;4774473;30;20542;-79
2020/12/28 06:36:29;;;;;;;14.55;8.82;;;-0.20;99.90;;;;;;4774577;29;20500;-79
2020/12/28 06:38:59;;;;;;;15.20;8.10;;;-0.20;99.90;;;;;;4773788;29;20043;-79
2020/12/28 06:41:31;;;;;;;12.50;7.72;;;-0.20;99.90;;;;;;4774504;30;20043;-79
2020/12/28 06:47:22;;;;;;;18.80;13.07;;;-0.20;99.90;;;;;;5687557;24;20077;-79
2020/12/28 06:49:54;;;;;;;15.45;10.38;;;-0.20;99.90;;;;;;4787064;29;20083;-78
2020/12/28 06:52:25;;;;;;;12.02;6.72;;;-0.10;99.90;;;;;;4786292;29;20104;-78
2020/12/28 06:55:05;;;;;;;9.23;6.05;;;-0.10;99.90;;;;;;4772252;30;20129;-78
2020/12/28 06:57:37;;;;;;;8.43;6.05;;;-0.10;99.90;;;;;;4786419;29;20138;-78
2020/12/28 07:00:18;;;;;;;8.10;6.28;;;-0.10;99.90;;;;;;4771864;30;20531;-78
2020/12/28 07:02:54;;;;;;;10.23;6.38;;;0.00;99.90;;;;;;4771900;30;20120;-78
2020/12/28 07:05:26;;;;;;;9.48;5.65;;;0.00;99.90;;;;;;4771798;30;20043;-78
2020/12/28 07:07:58;;;;;;;11.80;6.70;;;0.10;99.90;;;;;;4771868;30;20131;-78
2020/12/28 07:10:29;;;;;;;9.18;6.15;;;0.10;99.90;;;;;;4771633;30;20587;-78
2020/12/28 07:13:02;;;;;;;14.00;6.32;;;0.10;99.90;;;;;;4770851;29;20158;-78
2020/12/28 07:15:34;;;;;;;12.05;6.50;;;0.00;99.90;;;;;;4785922;30;20114;-78
2020/12/28 07:18:07;;;;;;;12.50;7.32;;;0.00;99.90;;;;;;4771638;30;20154;-78
2020/12/28 07:20:38;;;;;;;12.13;7.82;;;-0.10;99.90;;;;;;4771558;30;20051;-78
2020/12/28 07:23:09;;;;;;;17.80;12.32;;;-0.10;99.90;;;;;;4771338;30;20150;-78
2020/12/28 07:25:40;;;;;;;16.35;10.93;;;-0.10;99.90;;;;;;4771610;30;20517;-78
2020/12/28 07:28:12;;;;;;;9.48;6.30;;;-0.10;99.90;;;;;;4771388;30;20063;-78
2020/12/28 07:30:43;;;;;;;8.60;6.45;;;-0.10;99.90;;;;;;4771561;30;20105;-78
2020/12/28 07:33:14;;;;;;;8.50;5.97;;;-0.10;99.90;;;;;;4774709;30;20138;-78
2020/12/28 07:35:46;;;;;;;9.68;5.85;;;-0.10;99.90;;;;;;4797645;29;20507;-78
2020/12/28 07:38:19;;;;;;;20.75;9.75;;;-0.10;99.90;;;;;;4773271;29;20669;-79
2020/12/28 07:40:54;;;;;;;34.33;12.65;;;-0.10;99.90;;;;;;4782234;29;20047;-78
2020/12/28 07:43:21;;;;;;;30.13;12.02;;;0.00;99.90;;;;;;4794021;29;20059;-78
2020/12/28 07:45:47;;;;;;;27.25;11.45;;;0.00;99.90;;;;;;4774523;29;20059;-78
2020/12/28 07:48:21;;;;;;;16.92;7.63;;;0.00;99.90;;;;;;4785965;29;20055;-78
2020/12/28 07:50:52;;;;;;;11.60;5.97;;;0.00;99.90;;;;;;4770391;30;20059;-78
2020/12/28 07:53:34;;;;;;;10.57;6.32;;;0.00;99.90;;;;;;4772296;29;20461;-79
2020/12/28 07:56:03;;;;;;;11.32;5.75;;;0.10;99.90;;;;;;4790981;29;20070;-78
2020/12/28 07:58:52;;;;;;;9.35;5.35;;;0.00;99.90;;;;;;4778434;30;20490;-79
2020/12/28 08:01:34;;;;;;;19.23;9.32;;;0.00;99.90;;;;;;4772281;29;20151;-78
2020/12/28 08:04:07;;;;;;;12.10;7.25;;;0.10;99.90;;;;;;4798856;29;20500;-79
2020/12/28 08:06:34;;;;;;;9.77;6.10;;;0.10;99.90;;;;;;4775763;29;20079;-79
2020/12/28 08:09:05;;;;;;;12.52;6.55;;;0.10;99.90;;;;;;4785205;29;20127;-78
2020/12/28 08:11:37;;;;;;;23.10;7.65;;;0.10;99.90;;;;;;4769592;29;20108;-78
2020/12/28 08:14:10;;;;;;;32.67;17.25;;;0.10;99.90;;;;;;4784475;29;20062;-79
2020/12/28 08:16:42;;;;;;;17.23;10.55;;;0.20;99.90;;;;;;4784577;30;20043;-78
2020/12/28 08:19:24;;;;;;;9.95;5.75;;;0.20;99.90;;;;;;4784142;30;20047;-78
2020/12/28 08:21:56;;;;;;;16.17;9.13;;;0.20;99.90;;;;;;4784637;29;20067;-78
2020/12/28 08:24:27;;;;;;;13.18;7.70;;;0.20;99.90;;;;;;4784524;29;20043;-78
2020/12/28 08:27:03;;;;;;;8.82;4.78;;;0.30;99.90;;;;;;4784787;30;20579;-79
2020/12/28 08:29:30;;;;;;;10.32;5.90;;;0.30;99.90;;;;;;4769768;30;20051;-78
2020/12/28 08:32:01;;;;;;;7.90;5.18;;;0.30;99.90;;;;;;4793092;29;20058;-78
2020/12/28 08:34:34;;;;;;;8.73;5.65;;;0.40;99.90;;;;;;4787948;29;20149;-79
2020/12/28 08:37:06;;;;;;;8.48;5.75;;;0.40;99.90;;;;;;4787951;29;20043;-79
2020/12/28 08:39:37;;;;;;;8.00;4.72;;;0.40;99.90;;;;;;4787755;29;20123;-79
2020/12/28 08:42:08;;;;;;;7.20;4.75;;;0.50;99.90;;;;;;4787866;29;20047;-78
2020/12/28 08:44:41;;;;;;;9.05;5.13;;;0.50;99.90;;;;;;4775389;29;20051;-78
2020/12/28 08:47:13;;;;;;;7.03;4.97;;;0.40;99.90;;;;;;4770077;30;20051;-79
2020/12/28 08:49:48;;;;;;;18.10;7.68;;;0.50;99.90;;;;;;4785861;30;20047;-79
2020/12/28 08:52:17;;;;;;;15.10;8.88;;;0.50;99.90;;;;;;4772515;29;20055;-78
2020/12/28 08:54:52;;;;;;;17.13;10.52;;;0.50;99.90;;;;;;4769470;30;20094;-79
2020/12/28 08:57:29;;;;;;;17.45;10.80;;;0.50;99.90;;;;;;4769961;30;20199;-79
2020/12/28 09:00:00;;;;;;;14.05;8.80;;;0.60;99.90;;;;;;4752045;30;20079;-79
2020/12/28 09:02:32;;;;;;;11.18;6.10;;;0.60;99.90;;;;;;4767801;30;20044;-78
2020/12/28 09:05:03;;;;;;;7.38;5.05;;;0.60;99.90;;;;;;4752121;30;20052;-78
2020/12/28 09:07:35;;;;;;;7.72;3.80;;;0.60;99.90;;;;;;4767427;29;20688;-80
2020/12/28 09:10:06;;;;;;;9.07;5.93;;;0.60;99.90;;;;;;4752655;30;20405;-79
2020/12/28 09:12:37;;;;;;;11.70;7.60;;;0.60;99.90;;;;;;4752965;30;20048;-79
2020/12/28 09:15:09;;;;;;;11.52;7.00;;;0.70;99.90;;;;;;4752766;30;20470;-79
2020/12/28 09:17:41;;;;;;;11.93;8.15;;;0.70;99.90;;;;;;4767018;29;20512;-79
2020/12/28 09:20:08;;;;;;;11.73;7.70;;;0.70;99.90;;;;;;4766837;29;20055;-79
2020/12/28 09:22:40;;;;;;;11.65;7.28;;;0.80;99.90;;;;;;4752843;30;20071;-79
2020/12/28 09:25:11;;;;;;;9.60;6.80;;;0.80;99.90;;;;;;4752831;30;20052;-79
2020/12/28 09:27:43;;;;;;;12.75;7.80;;;0.80;99.90;;;;;;4766735;29;20105;-80
2020/12/28 09:30:14;;;;;;;12.20;6.85;;;0.80;99.90;;;;;;4767050;29;20066;-78
2020/12/28 09:32:46;;;;;;;9.57;5.88;;;0.80;99.90;;;;;;4752547;30;20129;-79
2020/12/28 09:35:20;;;;;;;8.95;6.10;;;0.80;99.90;;;;;;4766722;29;20055;-79
2020/12/28 09:37:46;;;;;;;11.93;6.18;;;0.80;99.90;;;;;;4751788;30;20052;-79
2020/12/28 09:40:17;;;;;;;14.00;8.18;;;0.80;99.90;;;;;;4789018;29;20674;-79
2020/12/28 09:42:49;;;;;;;11.60;7.45;;;0.90;99.90;;;;;;4802405;29;20043;-79
2020/12/28 09:45:36;;;;;;;15.60;7.65;;;0.90;99.90;;;;;;4787662;29;20497;-79
2020/12/28 09:48:07;;;;;;;14.15;8.05;;;1.00;99.90;;;;;;4778024;29;20048;-78
2020/12/28 09:50:33;;;;;;;19.00;10.52;;;1.10;99.90;;;;;;4766756;30;20059;-79
2020/12/28 09:53:05;;;;;;;26.55;15.52;;;1.10;99.90;;;;;;4767113;29;20079;-79
2020/12/28 09:55:36;;;;;;;26.85;15.60;;;1.10;99.90;;;;;;4781195;29;20576;-79
2020/12/28 09:58:07;;;;;;;23.98;14.40;;;1.20;99.90;;;;;;4772194;29;20097;-78
2020/12/28 10:00:39;;;;;;;24.17;15.40;;;1.20;99.90;;;;;;4785275;29;20120;-81
2020/12/28 10:03:10;;;;;;;23.38;14.23;;;1.20;99.90;;;;;;4790640;29;20471;-81
2020/12/28 10:05:41;;;;;;;18.67;12.30;;;1.30;99.90;;;;;;4799436;29;20059;-80
2020/12/28 10:08:13;;;;;;;16.88;10.05;;;1.20;99.90;;;;;;4789054;29;20503;-81
2020/12/28 10:10:44;;;;;;;12.30;8.00;;;1.30;99.90;;;;;;4802787;29;20054;-81
2020/12/28 10:13:16;;;;;;;12.77;8.77;;;1.30;99.90;;;;;;4788616;29;20701;-80
2020/12/28 10:15:47;;;;;;;13.82;8.15;;;1.30;99.90;;;;;;4786396;29;20051;-81
2020/12/28 10:18:22;;;;;;;15.85;10.68;;;1.20;99.90;;;;;;4786277;29;20046;-81
2020/12/28 10:20:53;;;;;;;21.10;8.88;;;1.20;99.90;;;;;;4772283;30;20051;-81
2020/12/28 10:23:24;;;;;;;14.15;8.95;;;1.20;99.90;;;;;;4786869;30;20051;-81
2020/12/28 10:25:56;;;;;;;13.50;8.55;;;1.30;99.90;;;;;;4801096;29;20055;-80
2020/12/28 10:28:27;;;;;;;16.88;9.27;;;1.20;99.90;;;;;;4785921;29;20534;-80
2020/12/28 10:30:58;;;;;;;15.93;10.57;;;1.20;99.90;;;;;;4786890;29;20060;-81
2020/12/28 10:33:30;;;;;;;17.35;10.57;;;1.20;99.90;;;;;;4786484;29;20053;-81
2020/12/28 10:35:56;;;;;;;19.55;11.93;;;1.30;99.90;;;;;;4786761;30;20454;-81
2020/12/28 10:38:28;;;;;;;17.33;10.70;;;1.30;99.90;;;;;;4772257;29;20075;-81
2020/12/28 10:40:59;;;;;;;16.95;11.27;;;1.30;99.90;;;;;;4772422;30;20719;-80
2020/12/28 10:43:30;;;;;;;15.98;10.07;;;1.30;99.90;;;;;;4786548;30;20067;-81
2020/12/28 10:46:02;;;;;;;17.15;10.50;;;1.30;99.90;;;;;;4772359;30;20051;-81
2020/12/28 10:48:35;;;;;;;19.20;10.55;;;1.30;99.90;;;;;;4787079;30;20465;-81
2020/12/28 10:51:09;;;;;;;21.77;11.43;;;1.30;99.90;;;;;;4769182;30;20104;-80
2020/12/28 10:53:40;;;;;;;22.95;12.35;;;1.30;99.90;;;;;;4783402;29;20048;-81
2020/12/28 10:56:12;;;;;;;21.75;11.93;;;1.30;99.90;;;;;;4769379;30;20055;-81
2020/12/28 10:58:43;;;;;;;21.45;12.32;;;1.30;99.90;;;;;;4783668;29;20059;-80
2020/12/28 11:01:14;;;;;;;15.52;9.98;;;1.40;99.90;;;;;;4755234;30;20139;-81
2020/12/28 11:03:46;;;;;;;15.88;9.43;;;1.40;99.90;;;;;;4784025;29;20136;-81
2020/12/28 11:06:12;;;;;;;16.17;8.93;;;1.40;99.90;;;;;;4783742;29;20144;-80
2020/12/28 11:08:43;;;;;;;21.20;11.00;;;1.40;99.90;;;;;;4800521;29;20153;-80
2020/12/28 11:11:16;;;;;;;19.98;13.90;;;1.40;99.90;;;;;;4787118;29;20055;-81
2020/12/28 11:13:51;;;;;;;13.90;7.70;;;1.40;99.90;;;;;;4775344;30;20055;-82
2020/12/28 11:16:26;;;;;;;14.00;9.13;;;1.30;99.90;;;;;;4775733;30;20067;-81
2020/12/28 11:18:58;;;;;;;13.38;8.73;;;1.30;99.90;;;;;;4789064;29;20114;-82
2020/12/28 11:21:25;;;;;;;12.75;8.68;;;1.30;99.90;;;;;;4773442;29;20051;-81
2020/12/28 11:24:00;;;;;;;18.35;10.02;;;1.30;99.90;;;;;;4792052;29;20170;-79
2020/12/28 11:26:27;;;;;;;17.33;9.95;;;1.30;99.90;;;;;;4793948;29;20047;-79
2020/12/28 11:28:54;;;;;;;15.88;9.65;;;1.20;99.90;;;;;;4807198;29;20059;-79
2020/12/28 11:31:21;;;;;;;14.52;9.00;;;1.20;99.90;;;;;;4802781;29;20054;-79
2020/12/28 11:33:48;;;;;;;14.52;8.35;;;1.20;99.90;;;;;;4778866;29;20654;-79
2020/12/28 11:36:20;;;;;;;11.95;7.75;;;1.10;99.90;;;;;;4794294;29;20043;-79
2020/12/28 11:38:47;;;;;;;12.80;8.05;;;1.10;99.90;;;;;;4781192;29;20503;-79
2020/12/28 11:41:15;;;;;;;14.88;8.60;;;1.10;99.90;;;;;;4774831;30;20119;-79
2020/12/28 11:43:46;;;;;;;14.20;8.00;;;1.10;99.90;;;;;;4775839;30;20077;-79
2020/12/28 11:46:18;;;;;;;14.13;7.88;;;1.10;99.90;;;;;;4779613;30;20054;-79
2020/12/28 11:48:46;;;;;;;10.80;7.05;;;1.10;99.90;;;;;;4775404;29;20051;-79
2020/12/28 11:51:18;;;;;;;10.18;6.45;;;1.10;99.90;;;;;;4776368;30;20047;-79
2020/12/28 11:53:49;;;;;;;8.75;6.20;;;1.10;99.90;;;;;;4783696;29;20085;-80
2020/12/28 11:56:18;;;;;;;9.35;5.70;;;1.10;99.90;;;;;;4792592;29;20209;-79
2020/12/28 11:58:49;;;;;;;7.30;5.35;;;1.10;99.90;;;;;;4791672;29;20047;-79
2020/12/28 12:01:20;;;;;;;9.15;5.60;;;1.20;99.90;;;;;;4790650;29;20685;-79
2020/12/28 12:03:47;;;;;;;7.85;5.57;;;1.30;99.90;;;;;;4805443;29;20071;-79
2020/12/28 12:06:21;;;;;;;10.80;6.05;;;1.30;99.90;;;;;;4805718;29;20472;-78
2020/12/28 12:11:45;;;;;;;7.55;5.22;;;1.40;99.90;;;;;;4804842;29;20157;-79
2020/12/28 12:14:17;;;;;;;10.13;6.15;;;1.50;99.90;;;;;;4805486;29;20051;-79
2020/12/28 12:16:48;;;;;;;7.68;6.20;;;1.50;99.90;;;;;;4805860;29;20129;-79
2020/12/28 12:19:19;;;;;;;9.73;6.18;;;1.50;99.90;;;;;;4777448;29;20115;-79
2020/12/28 12:21:45;;;;;;;10.25;6.35;;;1.50;99.90;;;;;;4784758;30;20825;-79
2020/12/28 12:24:12;;;;;;;9.63;6.50;;;1.50;99.90;;;;;;4785118;29;20094;-79
2020/12/28 12:26:38;;;;;;;10.35;6.70;;;1.50;99.90;;;;;;4786421;29;20074;-79
2020/12/28 12:29:04;;;;;;;9.52;6.30;;;1.50;99.90;;;;;;4770536;29;20487;-79
2020/12/28 12:31:36;;;;;;;8.60;6.40;;;1.50;99.90;;;;;;4774528;29;20120;-79
2020/12/28 12:34:03;;;;;;;8.68;6.20;;;1.70;99.90;;;;;;4780262;29;20089;-79
2020/12/28 12:36:35;;;;;;;10.60;7.95;;;1.70;99.90;;;;;;4784323;30;20134;-79
2020/12/28 12:39:01;;;;;;;15.27;7.50;;;1.70;99.90;;;;;;4791908;29;20051;-79
2020/12/28 12:41:27;;;;;;;11.43;7.65;;;1.70;99.90;;;;;;4789683;29;20074;-81
2020/12/28 12:48:46;;;;;;;13.63;8.35;;;1.60;99.90;;;;;;4799725;24;20082;-83
2020/12/28 13:03:08;;;;;;;15.55;9.00;;;1.60;99.90;;;;;;5125894;24;20059;31
2020/12/28 13:05:40;;;;;;;10.57;5.82;;;1.60;99.90;;;;;;4758012;30;20051;-78
2020/12/28 13:08:11;;;;;;;8.48;6.10;;;1.60;99.90;;;;;;4744838;30;20547;-80
2020/12/28 13:10:37;;;;;;;7.00;5.30;;;1.50;99.90;;;;;;4730950;30;20116;-79
2020/12/28 13:13:08;;;;;;;9.13;6.22;;;1.50;99.90;;;;;;4738141;30;20057;-79
2020/12/28 13:15:34;;;;;;;9.27;6.05;;;1.50;99.90;;;;;;4713671;30;20505;-78
2020/12/28 13:18:01;;;;;;;9.45;5.63;;;1.50;99.90;;;;;;4699141;30;20051;-78
2020/12/28 13:20:32;;;;;;;12.38;8.02;;;1.50;99.90;;;;;;4714814;30;20056;-78
2020/12/28 13:23:05;;;;;;;9.57;6.65;;;1.60;99.90;;;;;;4713661;30;20069;-78
2020/12/28 13:25:31;;;;;;;24.73;10.27;;;1.50;99.90;;;;;;4698853;30;20574;-78
2020/12/28 13:28:02;;;;;;;14.10;6.95;;;1.50;99.90;;;;;;4713343;30;20525;-80
2020/12/28 13:30:33;;;;;;;9.90;6.97;;;1.60;99.90;;;;;;4715098;30;20153;-80
2020/12/28 13:33:00;;;;;;;10.98;7.03;;;1.50;99.90;;;;;;4728364;30;20059;-79
2020/12/28 13:35:31;;;;;;;9.90;6.68;;;1.50;99.90;;;;;;4700063;30;20152;-78
2020/12/28 13:38:04;;;;;;;11.68;6.95;;;1.60;99.90;;;;;;4701206;30;20056;-78
2020/12/28 13:40:30;;;;;;;9.00;6.00;;;1.50;99.90;;;;;;4714141;30;20145;-78
2020/12/28 13:43:02;;;;;;;11.02;7.25;;;1.50;99.90;;;;;;4719181;30;20053;-78
2020/12/28 13:45:33;;;;;;;12.13;7.88;;;1.50;99.90;;;;;;4735062;30;20056;-78
2020/12/28 13:48:04;;;;;;;13.13;6.88;;;1.40;99.90;;;;;;4749109;30;20421;-78
2020/12/28 13:50:35;;;;;;;10.82;6.13;;;1.40;99.90;;;;;;4732376;30;20057;-79
2020/12/28 13:53:02;;;;;;;9.45;5.60;;;1.20;99.90;;;;;;4731374;30;20546;-80
2020/12/28 13:55:33;;;;;;;11.68;6.38;;;1.20;99.90;;;;;;4716833;30;20067;-79
2020/12/28 13:57:59;;;;;;;9.93;6.88;;;1.10;99.90;;;;;;4734668;30;20135;-79
2020/12/28 14:00:31;;;;;;;10.80;6.63;;;1.10;99.90;;;;;;4751677;30;20055;-78
2020/12/28 14:03:02;;;;;;;11.20;7.22;;;1.10;99.90;;;;;;4748263;30;20045;-79
2020/12/28 14:05:33;;;;;;;12.93;6.45;;;1.10;99.90;;;;;;4734199;30;20045;-79
2020/12/28 14:08:04;;;;;;;11.90;9.70;;;1.10;99.90;;;;;;4719370;30;20052;-79
2020/12/28 14:10:36;;;;;;;10.70;7.28;;;1.10;99.90;;;;;;4734112;30;20044;-79
2020/12/28 14:13:09;;;;;;;10.70;7.55;;;1.00;99.90;;;;;;4747346;30;20145;-79
2020/12/28 14:15:40;;;;;;;7.38;6.10;;;1.00;99.90;;;;;;4748426;30;20405;-79
2020/12/28 14:18:11;;;;;;;8.88;6.07;;;1.00;99.90;;;;;;4748586;30;20053;-79
2020/12/28 14:20:42;;;;;;;8.70;5.75;;;0.90;99.90;;;;;;4748697;30;20063;-79
2020/12/28 14:23:14;;;;;;;11.55;7.20;;;0.90;99.90;;;;;;4717173;30;20505;-79
2020/12/28 14:25:45;;;;;;;9.48;6.88;;;0.90;99.90;;;;;;4752199;30;20483;-79
2020/12/28 14:28:16;;;;;;;9.73;6.97;;;0.80;99.90;;;;;;4751304;30;20441;-79
2020/12/28 14:30:49;;;;;;;12.20;8.05;;;0.80;99.90;;;;;;4740746;30;20061;-79
2020/12/28 14:33:21;;;;;;;12.73;8.68;;;0.80;99.90;;;;;;4722351;30;20049;-79
2020/12/28 14:35:52;;;;;;;11.70;7.50;;;0.80;99.90;;;;;;4750310;30;20048;-79
2020/12/28 14:38:18;;;;;;;9.95;7.40;;;0.80;99.90;;;;;;4750580;30;20080;-79
2020/12/28 14:40:45;;;;;;;12.75;7.47;;;0.80;99.90;;;;;;4735928;30;20155;-79
2020/12/28 14:43:16;;;;;;;8.20;5.15;;;0.80;99.90;;;;;;4736374;30;20436;-80
2020/12/28 14:45:42;;;;;;;6.07;4.53;;;0.90;99.90;;;;;;4750637;30;20156;-79
2020/12/28 14:48:09;;;;;;;11.55;5.93;;;1.00;99.90;;;;;;4735537;30;20110;-79
2020/12/28 14:50:40;;;;;;;6.45;4.75;;;1.10;99.90;;;;;;4734939;30;20056;-80
2020/12/28 14:53:08;;;;;;;7.28;4.88;;;1.20;99.90;;;;;;4804827;24;20104;-79
2020/12/28 14:55:40;;;;;;;8.27;4.70;;;1.20;99.90;;;;;;4745552;30;20051;-79
2020/12/28 14:58:07;;;;;;;6.07;4.88;;;1.10;99.90;;;;;;4770189;30;20044;-79
2020/12/28 15:00:38;;;;;;;7.00;4.68;;;1.20;99.90;;;;;;4749161;30;20071;-80
2020/12/28 15:03:05;;;;;;;7.28;4.65;;;1.20;99.90;;;;;;4754030;30;20051;-79
2020/12/28 15:05:38;;;;;;;8.02;5.10;;;1.20;99.90;;;;;;4754157;30;20051;-79
2020/12/28 15:08:06;;;;;;;6.78;4.32;;;1.20;99.90;;;;;;4764497;30;20047;-79
2020/12/28 15:10:34;;;;;;;5.45;4.57;;;1.30;99.90;;;;;;4762902;30;20056;-79
2020/12/28 15:13:05;;;;;;;6.38;5.32;;;1.30;99.90;;;;;;4755195;30;20571;-79
2020/12/28 15:15:39;;;;;;;5.72;4.10;;;1.30;99.90;;;;;;4760442;30;20056;-78
2020/12/28 15:18:12;;;;;;;5.15;4.10;;;1.30;99.90;;;;;;4742088;30;20083;-79
2020/12/28 15:20:38;;;;;;;5.75;4.13;;;1.30;99.90;;;;;;4761303;30;20054;-79
2020/12/28 15:23:10;;;;;;;5.47;4.47;;;1.40;99.90;;;;;;4770024;29;20062;-79
2020/12/28 15:25:41;;;;;;;4.97;3.60;;;1.30;99.90;;;;;;4755630;30;20052;-79
2020/12/28 15:28:13;;;;;;;4.63;3.95;;;1.30;99.90;;;;;;4755249;30;20052;-80
2020/12/28 15:30:45;;;;;;;5.18;3.95;;;1.30;99.90;;;;;;4769519;30;20047;-79
2020/12/28 15:33:12;;;;;;;4.00;3.60;;;1.40;99.90;;;;;;4755110;30;20186;-79
2020/12/28 15:35:46;;;;;;;5.63;3.17;;;1.40;99.90;;;;;;4755876;30;20074;-79